Time;durP1;ratioP1;P1;durP2;ratioP2;P2;SDS_P1;SDS_P2;PMS_P1;PMS_P2;Temp;Humidity;BMP_temperature;BMP_pressure;BME280_temperature;BME280_humidity;BME280_pressure;Samples;Min_cycle;Max_cycle;Signal;HPM_P1;HPM_P2
2024/04/06 00:01:15;;;;;;;9.55;2.80;;;;;;;14.47;100.00;100999.41;5041857;28;20029;-72
2024/04/06 00:03:40;;;;;;;11.18;2.83;;;;;;;14.39;100.00;101003.94;5045247;28;20048;-67
2024/04/06 00:06:07;;;;;;;10.75;2.92;;;;;;;14.33;100.00;101012.84;5042331;28;20115;-66
2024/04/06 00:08:32;;;;;;;8.05;2.88;;;;;;;14.28;100.00;101019.94;5044140;28;20037;-71
2024/04/06 00:10:57;;;;;;;10.00;3.10;;;;;;;14.20;100.00;101028.00;5044155;28;20380;-75
2024/04/06 00:13:22;;;;;;;9.75;2.92;;;;;;;14.15;100.00;101026.25;5042726;28;20029;-72
2024/04/06 00:15:48;;;;;;;10.57;3.13;;;;;;;14.08;100.00;101028.06;5045015;28;20033;-69
2024/04/06 00:18:13;;;;;;;11.90;3.20;;;;;;;14.04;100.00;101039.66;5042059;28;20072;-66
2024/04/06 00:20:38;;;;;;;10.90;3.20;;;;;;;14.06;100.00;101032.53;5044650;28;20447;-67
2024/04/06 00:23:04;;;;;;;8.95;3.03;;;;;;;14.00;100.00;101024.63;5041406;28;20029;-66
2024/04/06 00:25:30;;;;;;;9.98;3.13;;;;;;;13.94;100.00;101020.22;5043781;28;20026;-66
2024/04/06 00:27:55;;;;;;;11.68;3.35;;;;;;;13.91;100.00;101031.75;5044068;28;20532;-74
2024/04/06 00:30:20;;;;;;;9.60;3.10;;;;;;;13.89;100.00;101035.28;5042621;28;20038;-80
2024/04/06 00:32:46;;;;;;;8.68;3.00;;;;;;;13.85;100.00;101034.44;5045332;28;20041;-80
2024/04/06 00:35:11;;;;;;;9.35;3.00;;;;;;;13.80;100.00;101030.91;5041971;28;20503;-80
2024/04/06 00:37:36;;;;;;;10.88;3.13;;;;;;;13.77;100.00;101036.25;5042043;28;20033;-77
2024/04/06 00:40:03;;;;;;;8.90;3.13;;;;;;;13.70;100.00;101023.91;5043877;28;20037;-71
2024/04/06 00:42:28;;;;;;;10.00;3.10;;;;;;;13.60;100.00;101031.94;5043779;28;20037;-77
2024/04/06 00:44:55;;;;;;;9.65;3.30;;;;;;;13.54;100.00;101031.97;5043059;28;20048;-71
2024/04/06 00:47:20;;;;;;;9.60;3.13;;;;;;;13.52;100.00;101023.09;5043498;28;20064;-75
2024/04/06 00:49:45;;;;;;;11.75;3.33;;;;;;;13.51;100.00;101029.28;5041384;28;20504;-79
2024/04/06 00:52:11;;;;;;;11.52;3.25;;;;;;;13.50;100.00;101024.91;5024193;28;20372;-79
2024/04/06 00:54:36;;;;;;;11.32;3.00;;;;;;;13.46;100.00;101032.91;5044458;28;20029;-80
2024/04/06 00:57:06;;;;;;;10.80;3.08;;;;;;;13.43;100.00;101028.47;5042884;28;20466;-78
2024/04/06 00:59:32;;;;;;;7.90;3.00;;;;;;;13.39;100.00;101019.63;5044304;28;20404;-79
2024/04/06 01:01:58;;;;;;;13.35;3.22;;;;;;;13.32;100.00;101030.25;5045105;28;20025;-79
2024/04/06 01:04:23;;;;;;;8.38;3.00;;;;;;;13.25;100.00;101022.31;5043729;28;20419;-69
2024/04/06 01:06:49;;;;;;;10.75;3.20;;;;;;;13.17;100.00;101026.75;5041962;28;20045;-68
2024/04/06 01:09:14;;;;;;;9.70;3.10;;;;;;;13.11;100.00;101021.47;5045000;28;20068;-78
2024/04/06 01:11:39;;;;;;;9.95;3.22;;;;;;;13.06;100.00;101029.47;5041939;28;20033;-79
2024/04/06 01:14:05;;;;;;;13.32;3.40;;;;;;;13.03;100.00;101025.91;5043847;28;20424;-80
2024/04/06 01:16:30;;;;;;;13.15;3.38;;;;;;;12.99;100.00;101026.81;5042252;28;20485;-66
2024/04/06 01:18:56;;;;;;;13.38;3.40;;;;;;;12.96;100.00;101038.34;5040952;28;20033;-67
2024/04/06 01:21:21;;;;;;;13.13;3.50;;;;;;;12.91;100.00;101040.97;5042330;28;20033;-73
2024/04/06 01:23:51;;;;;;;12.60;3.35;;;;;;;12.87;100.00;101028.63;5040670;28;20057;-69
2024/04/06 01:26:16;;;;;;;11.25;3.40;;;;;;;12.81;100.00;101022.44;5037243;28;20392;-74
2024/04/06 01:28:42;;;;;;;12.15;3.45;;;;;;;12.78;100.00;101020.66;5043980;28;20036;-71
2024/04/06 01:31:07;;;;;;;12.82;3.47;;;;;;;12.75;100.00;101020.69;5044054;28;20029;-74
2024/04/06 01:33:33;;;;;;;11.93;3.70;;;;;;;12.74;100.00;101021.56;5042008;28;20033;-67
2024/04/06 01:35:58;;;;;;;13.18;4.00;;;;;;;12.72;100.00;101028.66;5041945;28;20109;-67
2024/04/06 01:38:23;;;;;;;15.70;3.75;;;;;;;12.71;100.00;101021.56;5041948;28;20057;-67
2024/04/06 01:40:48;;;;;;;12.27;3.95;;;;;;;12.70;100.00;101023.34;5040868;28;20037;-66
2024/04/06 01:43:14;;;;;;;10.45;3.70;;;;;;;12.68;100.00;101029.53;5040299;28;20103;-68
2024/04/06 01:45:39;;;;;;;13.65;4.10;;;;;;;12.69;100.00;101033.97;5043622;28;20064;-66
2024/04/06 01:48:05;;;;;;;15.10;3.80;;;;;;;12.64;100.00;101033.06;5040509;28;20033;-66
2024/04/06 01:50:30;;;;;;;12.50;3.85;;;;;;;12.64;100.00;101035.72;5040838;28;20034;-67
2024/04/06 01:52:55;;;;;;;11.77;3.83;;;;;;;12.62;100.00;101042.81;5042579;28;20029;-73
2024/04/06 01:55:21;;;;;;;13.05;3.60;;;;;;;12.64;100.00;101043.66;5041040;28;20038;-67
2024/04/06 01:57:46;;;;;;;14.73;4.03;;;;;;;12.62;100.00;101025.13;5044472;28;20479;-69
2024/04/06 02:00:12;;;;;;;14.38;3.70;;;;;;;12.62;100.00;101013.63;5041147;28;20116;-71
2024/04/06 02:02:37;;;;;;;12.77;3.60;;;;;;;12.70;100.00;101003.91;5043772;28;20033;-70
2024/04/06 02:05:03;;;;;;;14.90;3.90;;;;;;;12.80;100.00;101021.56;5041936;28;20515;-77
2024/04/06 02:07:28;;;;;;;11.52;3.63;;;;;;;12.87;100.00;101012.72;5042706;28;20120;-79
2024/04/06 02:09:54;;;;;;;10.15;3.40;;;;;;;12.94;100.00;101018.00;5042091;28;20037;-75
2024/04/06 02:12:20;;;;;;;11.40;3.35;;;;;;;12.97;100.00;101010.03;5040971;28;20026;-77
2024/04/06 02:14:47;;;;;;;14.98;3.80;;;;;;;13.00;100.00;101010.00;5043118;28;20033;-79
2024/04/06 02:17:13;;;;;;;12.98;3.60;;;;;;;13.04;100.00;100996.72;5047869;28;20028;-66
2024/04/06 02:19:38;;;;;;;14.05;3.60;;;;;;;13.11;100.00;100996.72;5043642;28;20029;-66
2024/04/06 02:22:03;;;;;;;10.65;3.40;;;;;;;13.13;100.00;101006.41;5046645;28;20091;-66
2024/04/06 02:24:30;;;;;;;10.65;3.30;;;;;;;13.13;100.00;101000.25;5045908;28;20060;-66
2024/04/06 02:26:56;;;;;;;13.32;3.78;;;;;;;13.12;100.00;101004.69;5045616;28;20036;-80
2024/04/06 02:29:21;;;;;;;10.80;3.47;;;;;;;13.15;100.00;101012.63;5047390;28;20033;-80
2024/04/06 02:31:46;;;;;;;12.77;3.55;;;;;;;13.14;100.00;101000.22;5044521;28;20021;-80
2024/04/06 02:34:12;;;;;;;11.18;3.47;;;;;;;13.12;100.00;100995.81;5045490;28;20468;-66
2024/04/06 02:36:38;;;;;;;12.13;3.50;;;;;;;13.08;100.00;101003.78;5044501;28;20032;-66
2024/04/06 02:39:04;;;;;;;12.88;3.58;;;;;;;13.03;100.00;101005.59;5045471;28;20074;-72
2024/04/06 02:41:30;;;;;;;11.63;3.47;;;;;;;13.01;100.00;101007.34;5045258;28;20109;-72
2024/04/06 02:43:55;;;;;;;14.55;3.67;;;;;;;13.00;100.00;101005.56;5044663;28;20021;-66
2024/04/06 02:46:20;;;;;;;11.23;3.60;;;;;;;12.96;100.00;100997.63;5046203;28;20419;-66
2024/04/06 02:48:47;;;;;;;13.50;3.83;;;;;;;12.89;100.00;100991.47;5043439;28;20068;-67
2024/04/06 02:51:13;;;;;;;12.02;3.72;;;;;;;12.82;100.00;100993.25;5046703;28;20475;-67
2024/04/06 02:53:38;;;;;;;12.02;3.70;;;;;;;12.72;100.00;100987.06;5043736;28;20044;-67
2024/04/06 02:56:04;;;;;;;11.52;3.50;;;;;;;12.67;100.00;100990.66;5045304;28;20026;-66
2024/04/06 02:58:29;;;;;;;13.23;3.63;;;;;;;12.64;100.00;100990.63;5043663;28;20033;-66
2024/04/06 03:00:55;;;;;;;11.60;3.60;;;;;;;12.59;100.00;100989.78;5043915;28;20472;-68
2024/04/06 03:03:20;;;;;;;12.80;3.80;;;;;;;12.54;100.00;100984.47;5046555;28;20617;-74
2024/04/06 03:05:47;;;;;;;11.52;3.60;;;;;;;12.46;100.00;100995.06;5042724;28;20037;-66
2024/04/06 03:08:12;;;;;;;12.90;3.92;;;;;;;12.31;100.00;100989.81;5046286;28;20365;-67
2024/04/06 03:10:37;;;;;;;9.70;3.50;;;;;;;12.21;100.00;100983.63;5043768;28;20052;-66
2024/04/06 03:13:03;;;;;;;13.52;3.85;;;;;;;12.17;100.00;100995.09;5043455;28;20037;-68
2024/04/06 03:15:29;;;;;;;11.13;3.80;;;;;;;12.10;100.00;100986.28;5044948;28;20029;-66
2024/04/06 03:17:54;;;;;;;13.45;3.70;;;;;;;12.03;100.00;100977.44;5043626;28;20033;-66
2024/04/06 03:20:20;;;;;;;12.40;3.60;;;;;;;12.04;100.00;100973.00;5045821;28;20033;-66
2024/04/06 03:22:58;;;;;;;15.55;3.97;;;;;;;12.02;100.00;100956.22;5042632;28;20022;-67
2024/04/06 03:25:24;;;;;;;12.38;3.70;;;;;;;11.96;100.00;100950.94;5040829;28;20024;-73
2024/04/06 03:27:49;;;;;;;15.20;3.92;;;;;;;11.91;100.00;100950.00;5045516;28;20037;-69
2024/04/06 03:30:15;;;;;;;14.90;4.05;;;;;;;11.92;100.00;100950.00;5042398;28;20032;-69
2024/04/06 03:32:40;;;;;;;14.10;4.13;;;;;;;11.85;100.00;100953.53;5045778;28;20040;-68
2024/04/06 03:35:06;;;;;;;13.52;3.90;;;;;;;11.78;100.00;100952.66;5043419;28;20027;-69
2024/04/06 03:37:31;;;;;;;14.60;3.92;;;;;;;11.77;100.00;100956.19;5043978;28;20029;-70
2024/04/06 03:39:56;;;;;;;13.18;3.63;;;;;;;11.76;100.00;100974.72;5044858;28;20077;-67
2024/04/06 03:42:25;;;;;;;15.63;4.68;;;;;;;11.74;100.00;100982.66;5042638;28;20477;-67
2024/04/06 03:44:50;;;;;;;16.17;4.30;;;;;;;11.75;100.00;100984.44;5045420;28;20033;-73
2024/04/06 03:47:15;;;;;;;13.30;4.15;;;;;;;11.71;100.00;100982.66;5042272;28;20392;-66
2024/04/06 03:49:40;;;;;;;14.30;4.28;;;;;;;11.70;100.00;100986.19;5043809;28;20356;-66
2024/04/06 03:52:06;;;;;;;13.45;4.22;;;;;;;11.71;100.00;100977.38;5043349;28;20364;-74
2024/04/06 03:54:31;;;;;;;13.90;4.18;;;;;;;11.67;100.00;100973.81;5043819;28;20515;-69
2024/04/06 03:56:56;;;;;;;15.18;4.07;;;;;;;11.68;100.00;100967.66;5044294;28;20048;-74
2024/04/06 03:59:22;;;;;;;15.57;4.20;;;;;;;11.72;100.00;100968.53;5041180;28;20044;-72
2024/04/06 04:01:47;;;;;;;12.65;4.20;;;;;;;11.76;100.00;100969.44;5045430;28;20052;-72
2024/04/06 04:04:12;;;;;;;13.27;4.30;;;;;;;11.77;100.00;100964.13;5042004;28;20029;-72
2024/04/06 04:06:38;;;;;;;16.10;4.30;;;;;;;11.79;100.00;100954.41;5044222;28;20104;-73
2024/04/06 04:09:03;;;;;;;16.38;4.50;;;;;;;11.75;100.00;100942.06;5043233;28;20029;-74
2024/04/06 04:11:28;;;;;;;15.93;4.50;;;;;;;11.75;100.00;100957.06;5042950;28;20052;-69
2024/04/06 04:13:54;;;;;;;16.92;4.68;;;;;;;11.70;100.00;100949.13;5044571;28;20071;-70
2024/04/06 04:16:19;;;;;;;15.30;4.75;;;;;;;11.68;100.00;100956.19;5040420;28;20029;-71
2024/04/06 04:18:46;;;;;;;16.17;4.80;;;;;;;11.66;100.00;100963.22;5037496;28;20495;-74
2024/04/06 04:21:11;;;;;;;14.95;4.65;;;;;;;11.60;100.00;100966.75;5043422;28;20476;-67
2024/04/06 04:23:36;;;;;;;14.27;4.65;;;;;;;11.60;100.00;100965.88;5042580;28;20033;-67
2024/04/06 04:26:03;;;;;;;15.52;4.65;;;;;;;11.63;100.00;100971.16;5041696;28;20033;-66
2024/04/06 04:28:28;;;;;;;13.88;4.75;;;;;;;11.64;100.00;100959.69;5042636;28;20104;-67
2024/04/06 04:30:54;;;;;;;15.45;4.88;;;;;;;11.66;100.00;100958.84;5040632;28;20539;-72
2024/04/06 04:33:19;;;;;;;15.60;4.78;;;;;;;11.71;100.00;100961.47;5044970;28;20040;-74
2024/04/06 04:35:44;;;;;;;16.13;4.82;;;;;;;11.75;100.00;100951.75;5037649;28;20033;-73
2024/04/06 04:38:10;;;;;;;14.98;4.75;;;;;;;11.72;100.00;100939.38;5043444;28;20036;-70
2024/04/06 04:40:36;;;;;;;14.98;4.60;;;;;;;11.68;100.00;100929.69;5041476;28;20076;-73
2024/04/06 04:43:01;;;;;;;14.60;4.63;;;;;;;11.66;100.00;100926.16;5041800;28;20036;-74
2024/04/06 04:45:27;;;;;;;14.50;4.55;;;;;;;11.64;100.00;100919.97;5043480;28;20104;-72
2024/04/06 04:47:52;;;;;;;15.13;4.93;;;;;;;11.60;100.00;100919.09;5041805;28;20042;-74
2024/04/06 04:50:18;;;;;;;17.20;5.30;;;;;;;11.58;100.00;100918.22;5044817;28;20029;-67
2024/04/06 04:52:43;;;;;;;16.00;5.20;;;;;;;11.51;100.00;100927.91;5041181;28;20380;-74
2024/04/06 04:55:08;;;;;;;17.02;5.15;;;;;;;11.49;100.00;100912.91;5043872;28;20029;-72
2024/04/06 04:57:33;;;;;;;17.40;5.30;;;;;;;11.49;100.00;100908.50;5042410;28;20068;-67
2024/04/06 04:59:59;;;;;;;17.48;6.20;;;;;;;11.42;100.00;100908.50;5042269;28;20044;-66
2024/04/06 05:02:25;;;;;;;17.13;6.18;;;;;;;11.40;100.00;100905.84;5044907;28;20045;-68
2024/04/06 05:04:50;;;;;;;18.38;6.68;;;;;;;11.32;100.00;100897.84;5044124;28;20045;-69
2024/04/06 05:07:16;;;;;;;19.60;6.75;;;;;;;11.32;100.00;100899.63;5040865;28;20076;-67
2024/04/06 05:09:41;;;;;;;18.30;6.72;;;;;;;11.32;100.00;100915.50;5044021;28;20473;-72
2024/04/06 05:12:07;;;;;;;18.50;6.97;;;;;;;11.30;100.00;100914.59;5042230;28;20382;-80
2024/04/06 05:14:32;;;;;;;18.90;7.45;;;;;;;11.31;100.00;100917.28;5043114;28;20396;-79
2024/04/06 05:16:57;;;;;;;20.50;7.57;;;;;;;11.40;100.00;100918.16;5043846;28;20025;-78
2024/04/06 05:19:23;;;;;;;20.58;8.10;;;;;;;11.44;100.00;100927.88;5041878;28;20487;-69
2024/04/06 05:21:49;;;;;;;20.42;7.90;;;;;;;11.51;100.00;100932.31;5044568;28;20454;-73
2024/04/06 05:24:14;;;;;;;20.08;7.53;;;;;;;11.50;100.00;100927.88;5040925;28;20026;-68
2024/04/06 05:26:41;;;;;;;20.00;7.57;;;;;;;11.56;100.00;100929.66;5043440;28;20043;-71
2024/04/06 05:29:07;;;;;;;19.92;7.10;;;;;;;11.62;100.00;100922.63;5042426;28;20087;-67
2024/04/06 05:31:32;;;;;;;19.60;6.90;;;;;;;11.60;100.00;100899.69;5042277;28;20029;-74
2024/04/06 05:33:58;;;;;;;18.27;6.60;;;;;;;11.62;100.00;100909.41;5043196;28;20071;-75
2024/04/06 05:36:23;;;;;;;19.73;6.63;;;;;;;11.69;100.00;100892.63;5041075;28;20463;-69
2024/04/06 05:38:49;;;;;;;18.75;6.72;;;;;;;11.74;100.00;100897.94;5039340;28;20029;-73
2024/04/06 05:41:15;;;;;;;19.15;6.45;;;;;;;11.77;100.00;100913.81;5043852;28;20041;-71
2024/04/06 05:43:40;;;;;;;18.92;6.13;;;;;;;11.87;100.00;100898.81;5041461;28;20080;-72
2024/04/06 05:46:05;;;;;;;17.60;6.13;;;;;;;11.94;100.00;100903.25;5042720;28;20120;-69
2024/04/06 05:48:31;;;;;;;18.30;6.25;;;;;;;11.94;100.00;100905.91;5041279;28;20120;-75
2024/04/06 05:51:00;;;;;;;18.02;5.75;;;;;;;12.00;100.00;100910.31;5043057;28;20465;-73
2024/04/06 05:53:25;;;;;;;17.55;5.72;;;;;;;12.02;100.00;100904.13;5046982;28;20033;-73
2024/04/06 05:55:51;;;;;;;17.30;5.43;;;;;;;12.06;100.00;100904.13;5044260;28;20477;-71
2024/04/06 05:58:17;;;;;;;16.20;5.28;;;;;;;12.10;100.00;100896.19;5048120;28;20111;-74
2024/04/06 06:00:42;;;;;;;16.42;5.25;;;;;;;12.15;100.00;100899.69;5044575;28;20083;-67
2024/04/06 06:03:07;;;;;;;15.75;4.80;;;;;;;12.19;100.00;100904.13;5046697;28;20380;-68
2024/04/06 06:05:33;;;;;;;15.52;4.60;;;;;;;12.23;100.00;100890.84;5045633;28;20070;-68
2024/04/06 06:07:59;;;;;;;15.90;5.00;;;;;;;12.30;100.00;100884.66;5043693;28;20041;-73
2024/04/06 06:10:24;;;;;;;15.55;4.70;;;;;;;12.32;100.00;100874.91;5047095;28;20021;-71
2024/04/06 06:12:50;;;;;;;13.60;4.28;;;;;;;12.36;100.00;100888.19;5043780;28;20037;-70
2024/04/06 06:15:15;;;;;;;13.40;4.32;;;;;;;12.42;100.00;100891.69;5047025;28;20033;-73
2024/04/06 06:17:40;;;;;;;13.77;4.35;;;;;;;12.43;100.00;100882.88;5044452;28;20037;-69
2024/04/06 06:20:09;;;;;;;15.07;4.10;;;;;;;12.45;100.00;100887.28;5046040;28;20025;-68
2024/04/06 06:22:35;;;;;;;12.70;4.20;;;;;;;12.52;100.00;100886.38;5044153;28;20032;-67
2024/04/06 06:25:00;;;;;;;12.05;3.90;;;;;;;12.64;100.00;100881.91;5031692;28;20021;-67
2024/04/06 06:27:26;;;;;;;12.63;3.80;;;;;;;12.75;100.00;100890.72;5046418;28;20515;-67
2024/04/06 06:29:51;;;;;;;11.25;3.70;;;;;;;12.86;100.00;100882.72;5043651;28;20033;-67
2024/04/06 06:32:17;;;;;;;13.02;3.80;;;;;;;12.94;100.00;100890.63;5043678;28;20083;-71
2024/04/06 06:34:43;;;;;;;11.48;3.50;;;;;;;13.02;100.00;100880.88;5043337;28;20033;-71
2024/04/06 06:37:08;;;;;;;15.05;3.72;;;;;;;13.05;100.00;100875.56;5044505;28;20032;-67
2024/04/06 06:39:34;;;;;;;12.55;3.60;;;;;;;13.17;100.00;100882.56;5044137;28;20490;-69
2024/04/06 06:41:59;;;;;;;11.48;3.28;;;;;;;13.32;100.00;100878.91;5044541;28;20052;-67
2024/04/06 06:44:25;;;;;;;11.68;3.30;;;;;;;13.45;100.00;100867.34;5046224;28;20071;-67
2024/04/06 06:46:50;;;;;;;10.32;3.20;;;;;;;13.59;100.00;100869.94;5042171;28;20060;-67
2024/04/06 06:49:15;;;;;;;13.52;3.30;;;;;;;13.73;100.00;100869.78;5046908;28;20480;-67
2024/04/06 06:51:41;;;;;;;13.05;3.25;;;;;;;13.83;100.00;100857.31;5044117;28;20103;-72
2024/04/06 06:54:06;;;;;;;10.68;3.05;;;;;;;13.93;100.00;100865.19;5045088;28;20030;-73
2024/04/06 06:56:32;;;;;;;11.57;3.20;;;;;;;14.06;100.00;100860.63;5045207;28;20032;-66
2024/04/06 06:58:57;;;;;;;12.27;3.30;;;;;;;14.19;100.00;100844.59;5044081;28;20033;-67
2024/04/06 07:01:23;;;;;;;13.40;3.20;;;;;;;14.32;100.00;100840.03;5045879;28;20070;-67
2024/04/06 07:03:49;;;;;;;12.15;3.15;;;;;;;14.44;100.00;100834.53;5042972;28;20030;-67
2024/04/06 07:06:14;;;;;;;11.68;3.10;;;;;;;14.59;100.00;100831.72;5045887;28;20041;-67
2024/04/06 07:08:40;;;;;;;10.27;3.17;;;;;;;14.72;100.00;100820.94;5043728;28;20037;-68
2024/04/06 07:11:06;;;;;;;10.32;3.08;;;;;;;14.81;100.00;100818.16;5045072;28;20029;-68
2024/04/06 07:13:31;;;;;;;10.25;2.95;;;;;;;14.89;100.00;100816.25;5045119;28;20554;-67
2024/04/06 07:16:13;;;;;;;12.18;3.17;;;;;;;14.99;100.00;100814.34;5043428;28;20079;-67
2024/04/06 07:18:40;;;;;;;9.55;3.13;;;;;;;15.08;100.00;100810.69;5043780;28;20108;-67
2024/04/06 07:21:11;;;;;;;9.70;3.15;;;;;;;15.17;100.00;100805.19;5044743;28;20125;-65
2024/04/06 07:23:37;;;;;;;11.43;3.15;;;;;;;15.27;100.00;100813.94;5044082;28;20036;-66
2024/04/06 07:26:03;;;;;;;11.15;3.08;;;;;;;15.32;100.00;100810.31;5043904;28;20040;-66
2024/04/06 07:28:28;;;;;;;11.60;3.10;;;;;;;15.41;100.00;100811.06;5045384;28;20037;-70
2024/04/06 07:30:53;;;;;;;11.65;3.10;;;;;;;15.47;100.00;100813.63;5042917;28;20032;-68
2024/04/06 07:33:19;;;;;;;9.48;3.00;;;;;;;15.53;100.00;100808.19;5045839;28;20067;-66
2024/04/06 07:35:48;;;;;;;10.15;3.10;;;;;;;15.60;100.00;100791.19;5042711;28;20033;-67
2024/04/06 07:38:14;;;;;;;11.40;3.08;;;;;;;15.64;100.00;100797.34;5045397;28;20376;-69
2024/04/06 07:40:39;;;;;;;10.80;2.95;;;;;;;15.60;100.00;100799.19;5042040;28;20029;-68
2024/04/06 07:43:04;;;;;;;10.25;3.00;;;;;;;15.67;100.00;100815.97;5042640;28;20108;-74
2024/04/06 07:45:30;;;;;;;11.00;3.00;;;;;;;15.79;100.00;100804.25;5042533;28;20033;-80
2024/04/06 07:47:56;;;;;;;10.48;2.80;;;;;;;15.83;100.00;100797.94;5045700;28;20041;-74
2024/04/06 07:50:22;;;;;;;13.07;3.00;;;;;;;15.99;100.00;100794.09;5042534;28;20029;-75
2024/04/06 07:52:47;;;;;;;12.65;3.05;;;;;;;16.26;100.00;100799.78;5044587;28;20104;-66
2024/04/06 07:55:12;;;;;;;11.50;2.85;;;;;;;16.62;100.00;100801.75;5042599;28;20037;-66
2024/04/06 07:57:38;;;;;;;9.40;2.92;;;;;;;16.89;100.00;100800.28;5044643;28;20473;-68
2024/04/06 08:00:04;;;;;;;10.32;2.92;;;;;;;17.18;100.00;100796.94;5043983;28;20029;-73
2024/04/06 08:02:30;;;;;;;11.70;2.90;;;;;;;17.36;100.00;100806.31;5043219;28;20040;-74
2024/04/06 08:04:56;;;;;;;9.55;2.75;;;;;;;17.61;100.00;100784.31;5044842;28;20392;-77
2024/04/06 08:07:24;;;;;;;10.60;2.70;;;;;;;17.89;100.00;100799.63;5042061;28;20113;-72
2024/04/06 08:09:50;;;;;;;9.30;2.80;;;;;;;18.17;100.00;100805.09;5042334;28;20105;-69
2024/04/06 08:12:16;;;;;;;9.70;2.90;;;;;;;18.35;100.00;100785.00;5045250;28;20044;-67
2024/04/06 08:14:42;;;;;;;7.53;2.60;;;;;;;18.41;100.00;100800.88;5040995;28;20538;-66
2024/04/06 08:17:07;;;;;;;9.07;2.80;;;;;;;18.61;100.00;100802.97;5044763;28;20037;-67
2024/04/06 08:19:32;;;;;;;9.73;2.60;;;;;;;18.74;100.00;100790.09;5044349;28;20025;-77
2024/04/06 08:21:58;;;;;;;9.27;2.70;;;;;;;18.89;100.00;100794.13;5046243;28;20029;-78
2024/04/06 08:24:23;;;;;;;8.98;2.60;;;;;;;18.90;100.00;100779.81;5042179;28;20026;-79
2024/04/06 08:26:49;;;;;;;10.13;2.65;;;;;;;18.94;100.00;100786.81;5045436;28;20045;-77
2024/04/06 08:29:14;;;;;;;11.65;2.85;;;;;;;19.12;100.00;100785.38;5041924;28;20511;-75
2024/04/06 08:31:40;;;;;;;9.40;2.40;;;;;;;19.44;100.00;100782.53;5044187;28;20030;-66
2024/04/06 08:34:07;;;;;;;10.48;2.50;;;;;;;19.64;100.00;100781.88;5043706;28;20045;-68
2024/04/06 08:36:32;;;;;;;7.97;2.67;;;;;;;19.98;100.00;100796.81;5043673;28;20061;-73
2024/04/06 08:38:58;;;;;;;6.63;2.47;;;;;;;20.17;100.00;100784.50;5043720;28;20543;-70
2024/04/06 08:41:24;;;;;;;6.38;2.40;;;;;;;20.48;100.00;100788.72;5041942;28;20040;-74
2024/04/06 08:43:55;;;;;;;7.97;2.40;;;;;;;21.01;100.00;100782.25;5044788;28;20392;-66
2024/04/06 08:46:21;;;;;;;7.93;2.47;;;;;;;21.02;100.00;100783.09;5037552;28;20037;-66
2024/04/06 08:48:49;;;;;;;11.32;2.50;;;;;;;21.25;100.00;100772.28;5044508;28;20095;-66
2024/04/06 08:51:16;;;;;;;7.60;2.50;;;;;;;21.37;100.00;100767.34;5041660;28;20111;-66
2024/04/06 08:53:41;;;;;;;8.48;2.20;;;;;;;21.49;100.00;100771.31;5043690;28;20030;-66
2024/04/06 08:56:08;;;;;;;8.38;2.47;;;;;;;21.63;100.00;100770.78;5042578;28;20097;-67
2024/04/06 08:58:34;;;;;;;6.57;2.30;;;;;;;21.42;100.00;100773.38;5041183;28;20037;-67
2024/04/06 09:01:03;;;;;;;9.05;2.38;;;;;;;21.23;100.00;100763.44;5044451;28;20155;-67
2024/04/06 09:03:29;;;;;;;9.13;2.33;;;;;;;21.05;100.00;100764.16;5043883;28;20037;-66
2024/04/06 09:05:54;;;;;;;7.72;2.40;;;;;;;20.95;100.00;100762.78;5040865;28;20045;-68
2024/04/06 09:08:20;;;;;;;10.23;2.60;;;;;;;21.09;100.00;100757.75;5044473;28;20087;-66
2024/04/06 09:10:53;;;;;;;7.93;2.55;;;;;;;21.35;100.00;100742.34;5041495;28;20091;-65
2024/04/06 09:13:19;;;;;;;8.43;2.50;;;;;;;21.41;100.00;100742.09;5037058;28;20029;-67
2024/04/06 09:15:44;;;;;;;6.78;2.55;;;;;;;21.54;100.00;100729.88;5042346;28;20075;-67
2024/04/06 09:18:10;;;;;;;8.50;2.40;;;;;;;21.45;100.00;100714.13;5041919;28;20476;-66
2024/04/06 09:20:35;;;;;;;9.93;2.50;;;;;;;21.24;100.00;100722.16;5042627;28;20039;-67
2024/04/06 09:23:00;;;;;;;9.68;2.55;;;;;;;21.24;100.00;100727.53;5042943;28;20104;-67
2024/04/06 09:25:26;;;;;;;6.35;2.20;;;;;;;21.13;100.00;100723.53;5043632;28;20080;-69
2024/04/06 09:27:51;;;;;;;9.20;2.40;;;;;;;21.09;100.00;100722.81;5048234;28;20036;-67
2024/04/06 09:30:29;;;;;;;9.48;2.38;;;;;;;21.07;100.00;100727.34;5045061;28;20029;-69
2024/04/06 09:32:55;;;;;;;6.50;2.30;;;;;;;21.06;100.00;100721.13;5041928;28;20037;-68
2024/04/06 09:35:21;;;;;;;7.15;2.42;;;;;;;21.65;100.00;100715.97;5046953;28;20041;-72
2024/04/06 09:37:51;;;;;;;8.27;2.40;;;;;;;22.19;100.00;100727.03;5045078;28;20120;-71
2024/04/06 09:40:17;;;;;;;8.88;2.55;;;;;;;22.43;100.00;100718.78;5044739;28;20025;-71
2024/04/06 09:42:43;;;;;;;5.30;2.38;;;;;;;22.53;100.00;100708.41;5047134;28;20492;-71
2024/04/06 09:45:09;;;;;;;9.30;2.50;;;;;;;22.84;100.00;100701.56;5045720;28;20041;-72
2024/04/06 09:47:35;;;;;;;16.58;6.63;;;;;;;23.03;100.00;100696.13;5045995;28;20467;-71
2024/04/06 09:50:01;;;;;;;9.38;2.40;;;;;;;23.26;100.00;100724.66;5045564;28;20120;-71
2024/04/06 09:52:27;;;;;;;8.10;2.40;;;;;;;23.14;100.00;100701.91;5044715;28;20380;-79
2024/04/06 09:54:53;;;;;;;6.75;2.20;;;;;;;22.97;100.00;100690.09;5048201;28;20033;-77
2024/04/06 09:57:20;;;;;;;7.85;2.30;;;;;;;22.77;100.00;100696.47;5040075;28;20133;-77
2024/04/06 09:59:45;;;;;;;8.77;2.40;;;;;;;22.83;100.00;100689.91;5046987;28;20033;-75
2024/04/06 10:02:21;;;;;;;9.38;2.30;;;;;;;22.88;100.00;100693.25;5045273;28;20379;-77
2024/04/06 10:04:54;;;;;;;5.72;2.20;;;;;;;23.00;100.00;100702.53;5047032;28;20032;-76
2024/04/06 10:07:29;;;;;;;10.63;2.50;;;;;;;22.79;100.00;100699.09;5039866;28;20365;-76
2024/04/06 10:10:03;;;;;;;7.25;2.35;;;;;;;23.12;100.00;100685.78;5041014;28;20112;-77
2024/04/06 10:12:46;;;;;;;8.10;2.20;;;;;;;23.05;100.00;100703.22;5046889;28;20033;-67
2024/04/06 10:15:12;;;;;;;7.93;2.35;;;;;;;22.81;100.00;100689.13;5046560;28;20052;-78
2024/04/06 10:17:58;;;;;;;5.15;2.10;;;;;;;22.81;100.00;100694.50;5045697;28;20371;-78
2024/04/06 10:20:24;;;;;;;5.70;2.38;;;;;;;22.42;100.00;100680.19;5040433;28;20032;-76
2024/04/06 10:22:53;;;;;;;4.47;2.10;;;;;;;;;;5040162;28;20033;-76
2024/04/06 10:25:26;;;;;;;8.00;2.20;;;;;;;22.30;100.00;100683.44;5039915;28;20026;-77
2024/04/06 10:27:59;;;;;;;6.45;2.17;;;;;;;22.49;100.00;100704.16;5040425;28;20060;-74
2024/04/06 10:30:25;;;;;;;7.55;2.15;;;;;;;22.48;100.00;100672.78;5040521;28;20029;-72
2024/04/06 10:32:50;;;;;;;7.13;2.25;;;;;;;22.73;100.00;100664.38;5047629;28;20089;-70
2024/04/06 10:35:15;;;;;;;9.70;2.33;;;;;;;23.16;100.00;100670.34;5044503;28;20034;-78
2024/04/06 10:37:41;;;;;;;8.73;2.40;;;;;;;23.83;100.00;100673.13;5045290;28;20051;-74
2024/04/06 10:40:09;;;;;;;4.75;2.20;;;;;;;24.22;100.00;100682.75;5044195;28;20110;-80
2024/04/06 10:42:38;;;;;;;5.10;2.10;;;;;;;24.36;100.00;100679.28;5042382;28;20036;-78
2024/04/06 10:45:04;;;;;;;8.23;2.10;;;;;;;24.87;99.83;100665.59;5045080;28;20425;-76
2024/04/06 10:47:29;;;;;;;6.35;2.30;;;;;;;24.60;100.00;100674.34;5046309;28;20063;-77
2024/04/06 10:49:54;;;;;;;8.05;2.20;;;;;;;24.54;91.85;100680.09;5043661;28;20032;-73
2024/04/06 10:52:21;;;;;;;7.93;2.20;;;;;;;24.98;93.12;100671.25;5047420;28;20060;-70
2024/04/06 10:54:47;;;;;;;7.43;2.00;;;;;;;25.04;98.70;100664.63;5046624;28;20396;-74
2024/04/06 10:57:12;;;;;;;5.25;2.08;;;;;;;25.13;88.51;100660.50;5044278;28;20033;-77
2024/04/06 10:59:38;;;;;;;4.22;2.00;;;;;;;25.59;77.44;100649.63;5045259;28;20104;-68
2024/04/06 11:02:06;;;;;;;7.28;2.00;;;;;;;26.18;80.20;100654.97;5045260;28;20033;-68
2024/04/06 11:04:37;;;;;;;6.18;2.00;;;;;;;27.13;81.44;100655.09;5044399;28;20035;-76
2024/04/06 11:07:02;;;;;;;5.75;2.20;;;;;;;27.18;83.58;100642.09;5045207;28;20055;-75